sensor_id;sensor_type;location;lat;lon;timestamp;P1;durP1;ratioP1;P2;durP2;ratioP2
3949;SDS011;53057;50.988;6.314;2024-01-11T00:00:33;88.13;;;42.90;;
3949;SDS011;53057;50.988;6.314;2024-01-11T00:03:01;87.50;;;39.83;;
3949;SDS011;53057;50.988;6.314;2024-01-11T00:05:28;88.55;;;38.25;;
3949;SDS011;53057;50.988;6.314;2024-01-11T00:07:56;78.93;;;40.75;;
3949;SDS011;53057;50.988;6.314;2024-01-11T00:10:24;77.85;;;38.03;;
3949;SDS011;53057;50.988;6.314;2024-01-11T00:12:52;79.32;;;38.10;;
3949;SDS011;53057;50.988;6.314;2024-01-11T00:15:19;85.68;;;40.53;;
3949;SDS011;53057;50.988;6.314;2024-01-11T00:17:47;90.65;;;40.25;;
3949;SDS011;53057;50.988;6.314;2024-01-11T00:20:15;75.93;;;37.33;;
3949;SDS011;53057;50.988;6.314;2024-01-11T00:22:44;86.60;;;38.28;;
3949;SDS011;53057;50.988;6.314;2024-01-11T00:25:11;79.13;;;37.10;;
3949;SDS011;53057;50.988;6.314;2024-01-11T00:27:39;90.18;;;40.17;;
3949;SDS011;53057;50.988;6.314;2024-01-11T00:30:07;76.95;;;37.25;;
3949;SDS011;53057;50.988;6.314;2024-01-11T00:32:34;75.20;;;37.70;;
3949;SDS011;53057;50.988;6.314;2024-01-11T00:35:02;95.85;;;40.47;;
3949;SDS011;53057;50.988;6.314;2024-01-11T00:37:29;81.53;;;40.03;;
3949;SDS011;53057;50.988;6.314;2024-01-11T00:39:56;71.50;;;38.17;;
3949;SDS011;53057;50.988;6.314;2024-01-11T00:42:23;71.65;;;38.70;;
3949;SDS011;53057;50.988;6.314;2024-01-11T00:44:51;92.35;;;41.05;;
3949;SDS011;53057;50.988;6.314;2024-01-11T00:47:18;80.78;;;40.05;;
3949;SDS011;53057;50.988;6.314;2024-01-11T00:49:45;87.35;;;41.15;;
3949;SDS011;53057;50.988;6.314;2024-01-11T00:52:13;78.45;;;39.28;;
3949;SDS011;53057;50.988;6.314;2024-01-11T00:54:41;85.90;;;40.03;;
3949;SDS011;53057;50.988;6.314;2024-01-11T00:57:08;81.63;;;40.47;;
3949;SDS011;53057;50.988;6.314;2024-01-11T00:59:35;76.78;;;37.92;;
3949;SDS011;53057;50.988;6.314;2024-01-11T01:02:03;88.20;;;41.50;;
3949;SDS011;53057;50.988;6.314;2024-01-11T01:04:30;83.13;;;40.97;;
3949;SDS011;53057;50.988;6.314;2024-01-11T01:06:58;94.32;;;41.40;;
3949;SDS011;53057;50.988;6.314;2024-01-11T01:09:26;83.25;;;39.92;;
3949;SDS011;53057;50.988;6.314;2024-01-11T01:11:52;80.32;;;39.10;;
3949;SDS011;53057;50.988;6.314;2024-01-11T01:14:19;88.72;;;39.63;;
3949;SDS011;53057;50.988;6.314;2024-01-11T01:16:47;95.40;;;41.05;;
3949;SDS011;53057;50.988;6.314;2024-01-11T01:19:15;85.75;;;44.03;;
3949;SDS011;53057;50.988;6.314;2024-01-11T01:21:42;109.47;;;44.58;;
3949;SDS011;53057;50.988;6.314;2024-01-11T01:24:08;90.50;;;42.83;;
3949;SDS011;53057;50.988;6.314;2024-01-11T01:26:36;90.40;;;40.42;;
3949;SDS011;53057;50.988;6.314;2024-01-11T01:29:03;87.82;;;40.53;;
3949;SDS011;53057;50.988;6.314;2024-01-11T01:31:31;84.00;;;39.63;;
3949;SDS011;53057;50.988;6.314;2024-01-11T01:34:03;91.32;;;40.30;;
3949;SDS011;53057;50.988;6.314;2024-01-11T01:36:32;95.32;;;40.78;;
3949;SDS011;53057;50.988;6.314;2024-01-11T01:38:59;89.38;;;40.13;;
3949;SDS011;53057;50.988;6.314;2024-01-11T01:41:27;99.80;;;43.88;;
3949;SDS011;53057;50.988;6.314;2024-01-11T01:43:55;97.28;;;42.05;;
3949;SDS011;53057;50.988;6.314;2024-01-11T01:46:23;96.75;;;43.17;;
3949;SDS011;53057;50.988;6.314;2024-01-11T01:48:51;98.38;;;41.47;;
3949;SDS011;53057;50.988;6.314;2024-01-11T01:51:20;86.22;;;43.20;;
3949;SDS011;53057;50.988;6.314;2024-01-11T01:53:50;97.28;;;40.75;;
3949;SDS011;53057;50.988;6.314;2024-01-11T01:56:19;81.57;;;40.40;;
3949;SDS011;53057;50.988;6.314;2024-01-11T01:58:47;92.55;;;44.25;;
3949;SDS011;53057;50.988;6.314;2024-01-11T02:01:16;98.18;;;40.35;;
3949;SDS011;53057;50.988;6.314;2024-01-11T02:03:46;100.28;;;41.80;;
3949;SDS011;53057;50.988;6.314;2024-01-11T02:06:13;79.13;;;41.17;;
3949;SDS011;53057;50.988;6.314;2024-01-11T02:08:42;85.85;;;42.22;;
3949;SDS011;53057;50.988;6.314;2024-01-11T02:11:09;91.32;;;42.47;;
3949;SDS011;53057;50.988;6.314;2024-01-11T02:13:37;92.18;;;44.92;;
3949;SDS011;53057;50.988;6.314;2024-01-11T02:16:04;93.47;;;45.30;;
3949;SDS011;53057;50.988;6.314;2024-01-11T02:18:32;99.03;;;43.90;;
3949;SDS011;53057;50.988;6.314;2024-01-11T02:21:00;95.68;;;44.80;;
3949;SDS011;53057;50.988;6.314;2024-01-11T02:23:29;101.22;;;44.65;;
3949;SDS011;53057;50.988;6.314;2024-01-11T02:25:57;112.93;;;43.60;;
3949;SDS011;53057;50.988;6.314;2024-01-11T02:28:25;113.85;;;45.10;;
3949;SDS011;53057;50.988;6.314;2024-01-11T02:30:52;129.18;;;45.75;;
3949;SDS011;53057;50.988;6.314;2024-01-11T02:33:20;90.90;;;44.22;;
3949;SDS011;53057;50.988;6.314;2024-01-11T02:35:48;95.45;;;46.25;;
3949;SDS011;53057;50.988;6.314;2024-01-11T02:38:15;107.65;;;45.25;;
3949;SDS011;53057;50.988;6.314;2024-01-11T02:40:42;100.38;;;48.00;;
3949;SDS011;53057;50.988;6.314;2024-01-11T02:43:10;89.82;;;44.92;;
3949;SDS011;53057;50.988;6.314;2024-01-11T02:45:38;107.60;;;46.55;;
3949;SDS011;53057;50.988;6.314;2024-01-11T02:48:05;99.03;;;48.13;;
3949;SDS011;53057;50.988;6.314;2024-01-11T02:50:33;310.83;;;143.38;;
3949;SDS011;53057;50.988;6.314;2024-01-11T02:53:00;157.70;;;84.78;;
3949;SDS011;53057;50.988;6.314;2024-01-11T02:55:27;120.22;;;53.20;;
3949;SDS011;53057;50.988;6.314;2024-01-11T02:57:54;110.80;;;55.13;;
3949;SDS011;53057;50.988;6.314;2024-01-11T03:00:21;148.35;;;61.28;;
3949;SDS011;53057;50.988;6.314;2024-01-11T03:02:48;97.07;;;49.53;;
3949;SDS011;53057;50.988;6.314;2024-01-11T03:05:15;117.70;;;58.38;;
3949;SDS011;53057;50.988;6.314;2024-01-11T03:07:42;170.98;;;79.35;;
3949;SDS011;53057;50.988;6.314;2024-01-11T03:10:09;225.88;;;94.07;;
3949;SDS011;53057;50.988;6.314;2024-01-11T03:12:37;105.22;;;51.97;;
3949;SDS011;53057;50.988;6.314;2024-01-11T03:15:04;123.22;;;55.60;;
3949;SDS011;53057;50.988;6.314;2024-01-11T03:17:32;249.85;;;106.40;;
3949;SDS011;53057;50.988;6.314;2024-01-11T03:20:00;370.15;;;156.82;;
3949;SDS011;53057;50.988;6.314;2024-01-11T03:22:27;133.27;;;57.50;;
3949;SDS011;53057;50.988;6.314;2024-01-11T03:24:55;173.75;;;74.18;;
3949;SDS011;53057;50.988;6.314;2024-01-11T03:27:22;172.57;;;76.55;;
3949;SDS011;53057;50.988;6.314;2024-01-11T03:29:49;108.30;;;49.30;;
3949;SDS011;53057;50.988;6.314;2024-01-11T03:32:16;116.18;;;53.47;;
3949;SDS011;53057;50.988;6.314;2024-01-11T03:34:43;123.18;;;57.70;;
3949;SDS011;53057;50.988;6.314;2024-01-11T03:37:10;102.15;;;47.65;;
3949;SDS011;53057;50.988;6.314;2024-01-11T03:39:37;93.15;;;47.13;;
3949;SDS011;53057;50.988;6.314;2024-01-11T03:42:04;86.82;;;42.10;;
3949;SDS011;53057;50.988;6.314;2024-01-11T03:44:31;92.50;;;42.03;;
3949;SDS011;53057;50.988;6.314;2024-01-11T03:46:58;90.47;;;41.10;;
3949;SDS011;53057;50.988;6.314;2024-01-11T03:49:25;98.53;;;43.92;;
3949;SDS011;53057;50.988;6.314;2024-01-11T03:51:52;89.28;;;43.90;;
3949;SDS011;53057;50.988;6.314;2024-01-11T03:54:18;90.47;;;42.90;;
3949;SDS011;53057;50.988;6.314;2024-01-11T03:56:45;89.70;;;40.97;;
3949;SDS011;53057;50.988;6.314;2024-01-11T03:59:12;90.25;;;43.97;;
3949;SDS011;53057;50.988;6.314;2024-01-11T04:01:40;86.40;;;43.47;;
3949;SDS011;53057;50.988;6.314;2024-01-11T04:04:07;88.97;;;44.33;;
3949;SDS011;53057;50.988;6.314;2024-01-11T04:06:34;103.50;;;44.00;;
3949;SDS011;53057;50.988;6.314;2024-01-11T04:09:00;95.65;;;43.80;;
3949;SDS011;53057;50.988;6.314;2024-01-11T04:11:27;94.47;;;45.05;;
3949;SDS011;53057;50.988;6.314;2024-01-11T04:13:54;87.00;;;45.83;;
3949;SDS011;53057;50.988;6.314;2024-01-11T04:16:21;95.75;;;43.95;;
3949;SDS011;53057;50.988;6.314;2024-01-11T04:18:48;109.13;;;44.97;;
3949;SDS011;53057;50.988;6.314;2024-01-11T04:23:50;101.20;;;46.53;;
3949;SDS011;53057;50.988;6.314;2024-01-11T04:26:17;130.32;;;49.42;;
3949;SDS011;53057;50.988;6.314;2024-01-11T04:28:45;113.95;;;48.60;;
3949;SDS011;53057;50.988;6.314;2024-01-11T04:31:16;102.00;;;46.72;;
3949;SDS011;53057;50.988;6.314;2024-01-11T04:33:44;106.95;;;47.15;;
3949;SDS011;53057;50.988;6.314;2024-01-11T04:36:12;103.45;;;43.90;;
3949;SDS011;53057;50.988;6.314;2024-01-11T04:38:40;106.40;;;47.42;;
3949;SDS011;53057;50.988;6.314;2024-01-11T04:41:11;110.38;;;46.70;;
3949;SDS011;53057;50.988;6.314;2024-01-11T04:43:38;90.55;;;47.03;;
3949;SDS011;53057;50.988;6.314;2024-01-11T04:46:19;97.45;;;45.55;;
3949;SDS011;53057;50.988;6.314;2024-01-11T04:48:46;93.40;;;45.00;;
3949;SDS011;53057;50.988;6.314;2024-01-11T04:51:15;96.72;;;45.17;;
3949;SDS011;53057;50.988;6.314;2024-01-11T04:53:43;90.18;;;45.30;;
3949;SDS011;53057;50.988;6.314;2024-01-11T04:56:13;97.50;;;49.30;;
3949;SDS011;53057;50.988;6.314;2024-01-11T04:58:41;97.95;;;47.28;;
3949;SDS011;53057;50.988;6.314;2024-01-11T05:01:15;95.25;;;45.92;;
3949;SDS011;53057;50.988;6.314;2024-01-11T05:03:43;103.95;;;50.45;;
3949;SDS011;53057;50.988;6.314;2024-01-11T05:06:15;108.32;;;48.53;;
3949;SDS011;53057;50.988;6.314;2024-01-11T05:08:43;99.25;;;50.28;;
3949;SDS011;53057;50.988;6.314;2024-01-11T05:11:14;108.18;;;50.72;;
3949;SDS011;53057;50.988;6.314;2024-01-11T05:13:41;114.38;;;52.95;;
3949;SDS011;53057;50.988;6.314;2024-01-11T05:16:43;109.10;;;53.53;;
3949;SDS011;53057;50.988;6.314;2024-01-11T05:19:03;113.13;;;51.92;;
3949;SDS011;53057;50.988;6.314;2024-01-11T05:21:30;136.90;;;57.65;;
3949;SDS011;53057;50.988;6.314;2024-01-11T05:23:57;116.60;;;54.70;;
3949;SDS011;53057;50.988;6.314;2024-01-11T05:26:25;117.15;;;55.65;;
3949;SDS011;53057;50.988;6.314;2024-01-11T05:28:52;116.15;;;53.80;;
3949;SDS011;53057;50.988;6.314;2024-01-11T05:31:19;113.25;;;52.78;;
3949;SDS011;53057;50.988;6.314;2024-01-11T05:33:47;108.30;;;52.78;;
3949;SDS011;53057;50.988;6.314;2024-01-11T05:36:15;118.30;;;51.97;;
3949;SDS011;53057;50.988;6.314;2024-01-11T05:38:42;122.22;;;56.03;;
3949;SDS011;53057;50.988;6.314;2024-01-11T05:41:10;116.90;;;55.13;;
3949;SDS011;53057;50.988;6.314;2024-01-11T05:43:37;125.50;;;57.63;;
3949;SDS011;53057;50.988;6.314;2024-01-11T05:46:06;120.05;;;54.67;;
3949;SDS011;53057;50.988;6.314;2024-01-11T05:48:34;126.68;;;56.38;;
3949;SDS011;53057;50.988;6.314;2024-01-11T05:51:01;129.95;;;58.42;;
3949;SDS011;53057;50.988;6.314;2024-01-11T05:53:29;128.30;;;58.22;;
3949;SDS011;53057;50.988;6.314;2024-01-11T05:55:56;131.70;;;57.72;;
3949;SDS011;53057;50.988;6.314;2024-01-11T05:58:24;136.50;;;57.53;;
3949;SDS011;53057;50.988;6.314;2024-01-11T06:00:51;139.18;;;58.90;;
3949;SDS011;53057;50.988;6.314;2024-01-11T06:03:19;126.72;;;54.50;;
3949;SDS011;53057;50.988;6.314;2024-01-11T06:05:48;131.77;;;58.65;;
3949;SDS011;53057;50.988;6.314;2024-01-11T06:08:15;128.60;;;57.75;;
3949;SDS011;53057;50.988;6.314;2024-01-11T06:10:44;137.40;;;60.55;;
3949;SDS011;53057;50.988;6.314;2024-01-11T06:13:12;135.98;;;65.25;;
3949;SDS011;53057;50.988;6.314;2024-01-11T06:15:40;125.03;;;58.95;;
3949;SDS011;53057;50.988;6.314;2024-01-11T06:18:08;139.07;;;61.65;;
3949;SDS011;53057;50.988;6.314;2024-01-11T06:20:35;144.82;;;67.10;;
3949;SDS011;53057;50.988;6.314;2024-01-11T06:23:02;145.68;;;63.75;;
3949;SDS011;53057;50.988;6.314;2024-01-11T06:25:29;138.65;;;61.38;;
3949;SDS011;53057;50.988;6.314;2024-01-11T06:27:57;137.98;;;63.03;;
3949;SDS011;53057;50.988;6.314;2024-01-11T06:30:24;158.80;;;70.43;;
3949;SDS011;53057;50.988;6.314;2024-01-11T06:32:50;142.88;;;66.40;;
3949;SDS011;53057;50.988;6.314;2024-01-11T06:35:18;149.70;;;68.85;;
3949;SDS011;53057;50.988;6.314;2024-01-11T06:37:45;163.05;;;73.70;;
3949;SDS011;53057;50.988;6.314;2024-01-11T06:40:13;167.43;;;73.50;;
3949;SDS011;53057;50.988;6.314;2024-01-11T06:42:41;153.82;;;72.35;;
3949;SDS011;53057;50.988;6.314;2024-01-11T06:45:08;138.60;;;69.82;;
3949;SDS011;53057;50.988;6.314;2024-01-11T06:47:36;162.68;;;78.55;;
3949;SDS011;53057;50.988;6.314;2024-01-11T06:50:03;146.48;;;69.82;;
3949;SDS011;53057;50.988;6.314;2024-01-11T06:52:31;171.38;;;76.05;;
3949;SDS011;53057;50.988;6.314;2024-01-11T06:54:58;169.05;;;79.15;;
3949;SDS011;53057;50.988;6.314;2024-01-11T06:57:24;167.23;;;80.68;;
3949;SDS011;53057;50.988;6.314;2024-01-11T06:59:52;160.00;;;72.82;;
3949;SDS011;53057;50.988;6.314;2024-01-11T07:02:19;162.43;;;75.20;;
3949;SDS011;53057;50.988;6.314;2024-01-11T07:04:47;155.38;;;70.85;;
3949;SDS011;53057;50.988;6.314;2024-01-11T07:07:14;148.90;;;67.63;;
3949;SDS011;53057;50.988;6.314;2024-01-11T07:09:41;173.52;;;75.18;;
3949;SDS011;53057;50.988;6.314;2024-01-11T07:12:07;161.23;;;69.78;;
3949;SDS011;53057;50.988;6.314;2024-01-11T07:14:35;156.88;;;75.05;;
3949;SDS011;53057;50.988;6.314;2024-01-11T07:17:03;169.20;;;74.03;;
3949;SDS011;53057;50.988;6.314;2024-01-11T07:19:31;164.93;;;71.47;;
3949;SDS011;53057;50.988;6.314;2024-01-11T07:21:58;157.07;;;68.43;;
3949;SDS011;53057;50.988;6.314;2024-01-11T07:24:25;141.98;;;70.22;;
3949;SDS011;53057;50.988;6.314;2024-01-11T07:26:53;157.30;;;72.22;;
3949;SDS011;53057;50.988;6.314;2024-01-11T07:29:22;173.45;;;71.78;;
3949;SDS011;53057;50.988;6.314;2024-01-11T07:31:49;162.70;;;73.82;;
3949;SDS011;53057;50.988;6.314;2024-01-11T07:34:16;156.65;;;71.50;;
3949;SDS011;53057;50.988;6.314;2024-01-11T07:36:44;157.88;;;71.05;;
3949;SDS011;53057;50.988;6.314;2024-01-11T07:39:12;153.05;;;69.97;;
3949;SDS011;53057;50.988;6.314;2024-01-11T07:41:40;171.70;;;69.85;;
3949;SDS011;53057;50.988;6.314;2024-01-11T07:44:09;153.48;;;73.60;;
3949;SDS011;53057;50.988;6.314;2024-01-11T07:46:36;170.90;;;70.70;;
3949;SDS011;53057;50.988;6.314;2024-01-11T07:49:15;164.77;;;75.28;;
3949;SDS011;53057;50.988;6.314;2024-01-11T07:51:42;164.65;;;76.72;;
3949;SDS011;53057;50.988;6.314;2024-01-11T07:54:11;159.07;;;71.57;;
3949;SDS011;53057;50.988;6.314;2024-01-11T07:56:38;156.07;;;74.20;;
3949;SDS011;53057;50.988;6.314;2024-01-11T07:59:06;171.85;;;77.75;;
3949;SDS011;53057;50.988;6.314;2024-01-11T08:01:34;161.90;;;76.25;;
3949;SDS011;53057;50.988;6.314;2024-01-11T08:04:03;152.20;;;73.85;;
3949;SDS011;53057;50.988;6.314;2024-01-11T08:06:31;145.23;;;69.53;;
3949;SDS011;53057;50.988;6.314;2024-01-11T08:08:59;154.85;;;69.47;;
3949;SDS011;53057;50.988;6.314;2024-01-11T08:11:26;149.07;;;69.93;;
3949;SDS011;53057;50.988;6.314;2024-01-11T08:13:57;168.13;;;74.50;;
3949;SDS011;53057;50.988;6.314;2024-01-11T08:16:25;143.98;;;68.57;;
3949;SDS011;53057;50.988;6.314;2024-01-11T08:18:52;148.88;;;67.93;;
3949;SDS011;53057;50.988;6.314;2024-01-11T08:21:21;134.52;;;64.72;;
3949;SDS011;53057;50.988;6.314;2024-01-11T08:23:48;137.52;;;62.72;;
3949;SDS011;53057;50.988;6.314;2024-01-11T08:26:16;138.73;;;62.33;;
3949;SDS011;53057;50.988;6.314;2024-01-11T08:28:47;120.80;;;56.35;;
3949;SDS011;53057;50.988;6.314;2024-01-11T08:31:14;110.07;;;56.55;;
3949;SDS011;53057;50.988;6.314;2024-01-11T08:33:42;114.68;;;54.92;;
3949;SDS011;53057;50.988;6.314;2024-01-11T08:36:10;107.32;;;52.53;;
3949;SDS011;53057;50.988;6.314;2024-01-11T08:38:38;104.03;;;52.47;;
3949;SDS011;53057;50.988;6.314;2024-01-11T08:41:06;101.93;;;52.30;;
3949;SDS011;53057;50.988;6.314;2024-01-11T08:43:34;95.35;;;46.78;;
3949;SDS011;53057;50.988;6.314;2024-01-11T08:46:01;92.15;;;44.03;;
3949;SDS011;53057;50.988;6.314;2024-01-11T08:48:28;96.63;;;47.08;;
3949;SDS011;53057;50.988;6.314;2024-01-11T08:50:55;94.50;;;44.70;;
3949;SDS011;53057;50.988;6.314;2024-01-11T08:53:23;101.50;;;47.28;;
3949;SDS011;53057;50.988;6.314;2024-01-11T08:55:50;156.02;;;72.68;;
3949;SDS011;53057;50.988;6.314;2024-01-11T08:58:17;87.50;;;46.47;;
3949;SDS011;53057;50.988;6.314;2024-01-11T09:00:45;93.13;;;45.10;;
3949;SDS011;53057;50.988;6.314;2024-01-11T09:03:12;97.28;;;45.25;;
3949;SDS011;53057;50.988;6.314;2024-01-11T09:05:42;102.95;;;48.30;;
3949;SDS011;53057;50.988;6.314;2024-01-11T09:08:10;100.35;;;48.45;;
3949;SDS011;53057;50.988;6.314;2024-01-11T09:10:37;100.63;;;48.00;;
3949;SDS011;53057;50.988;6.314;2024-01-11T09:13:04;103.50;;;48.47;;
3949;SDS011;53057;50.988;6.314;2024-01-11T09:15:31;88.00;;;46.75;;
3949;SDS011;53057;50.988;6.314;2024-01-11T09:17:59;93.68;;;44.05;;
3949;SDS011;53057;50.988;6.314;2024-01-11T09:20:29;105.18;;;49.55;;
3949;SDS011;53057;50.988;6.314;2024-01-11T09:22:56;94.45;;;47.28;;
3949;SDS011;53057;50.988;6.314;2024-01-11T09:25:23;104.25;;;48.42;;
3949;SDS011;53057;50.988;6.314;2024-01-11T09:27:50;104.10;;;51.85;;
3949;SDS011;53057;50.988;6.314;2024-01-11T09:30:20;109.85;;;48.83;;
3949;SDS011;53057;50.988;6.314;2024-01-11T09:33:10;89.72;;;48.33;;
3949;SDS011;53057;50.988;6.314;2024-01-11T09:35:39;106.72;;;46.92;;
3949;SDS011;53057;50.988;6.314;2024-01-11T09:38:06;95.88;;;49.65;;
3949;SDS011;53057;50.988;6.314;2024-01-11T09:40:34;100.70;;;48.25;;
3949;SDS011;53057;50.988;6.314;2024-01-11T09:43:02;99.57;;;49.88;;
3949;SDS011;53057;50.988;6.314;2024-01-11T09:45:33;101.43;;;51.13;;
3949;SDS011;53057;50.988;6.314;2024-01-11T09:48:02;91.90;;;47.30;;
3949;SDS011;53057;50.988;6.314;2024-01-11T09:50:30;99.95;;;48.55;;
3949;SDS011;53057;50.988;6.314;2024-01-11T09:52:57;106.97;;;49.97;;
3949;SDS011;53057;50.988;6.314;2024-01-11T09:55:25;91.47;;;46.17;;
3949;SDS011;53057;50.988;6.314;2024-01-11T09:57:52;97.38;;;47.13;;
3949;SDS011;53057;50.988;6.314;2024-01-11T10:00:22;108.82;;;48.53;;
3949;SDS011;53057;50.988;6.314;2024-01-11T10:02:51;93.82;;;47.28;;
3949;SDS011;53057;50.988;6.314;2024-01-11T10:05:18;94.20;;;46.53;;
3949;SDS011;53057;50.988;6.314;2024-01-11T10:07:46;96.35;;;46.60;;
3949;SDS011;53057;50.988;6.314;2024-01-11T10:10:13;81.97;;;44.80;;
3949;SDS011;53057;50.988;6.314;2024-01-11T10:12:44;101.07;;;46.13;;
3949;SDS011;53057;50.988;6.314;2024-01-11T10:15:11;96.03;;;46.08;;
3949;SDS011;53057;50.988;6.314;2024-01-11T10:17:41;87.82;;;46.38;;
3949;SDS011;53057;50.988;6.314;2024-01-11T10:20:12;99.68;;;47.75;;
3949;SDS011;53057;50.988;6.314;2024-01-11T10:22:42;86.80;;;42.28;;
3949;SDS011;53057;50.988;6.314;2024-01-11T10:25:11;89.97;;;43.25;;
3949;SDS011;53057;50.988;6.314;2024-01-11T10:27:39;94.03;;;43.78;;
3949;SDS011;53057;50.988;6.314;2024-01-11T10:30:10;89.75;;;42.20;;
3949;SDS011;53057;50.988;6.314;2024-01-11T10:32:41;89.10;;;45.72;;
3949;SDS011;53057;50.988;6.314;2024-01-11T10:35:08;102.15;;;41.75;;
3949;SDS011;53057;50.988;6.314;2024-01-11T10:37:36;87.35;;;40.22;;
3949;SDS011;53057;50.988;6.314;2024-01-11T10:40:06;88.03;;;42.33;;
3949;SDS011;53057;50.988;6.314;2024-01-11T10:42:45;92.45;;;46.28;;
3949;SDS011;53057;50.988;6.314;2024-01-11T10:45:22;84.63;;;41.95;;
3949;SDS011;53057;50.988;6.314;2024-01-11T10:47:51;96.47;;;43.42;;
3949;SDS011;53057;50.988;6.314;2024-01-11T10:50:29;81.30;;;42.03;;
3949;SDS011;53057;50.988;6.314;2024-01-11T10:56:08;81.53;;;40.58;;
3949;SDS011;53057;50.988;6.314;2024-01-11T10:58:36;102.40;;;44.40;;
3949;SDS011;53057;50.988;6.314;2024-01-11T11:01:30;85.53;;;43.00;;
3949;SDS011;53057;50.988;6.314;2024-01-11T11:04:11;89.38;;;42.03;;
3949;SDS011;53057;50.988;6.314;2024-01-11T11:06:54;86.45;;;44.40;;
3949;SDS011;53057;50.988;6.314;2024-01-11T11:09:59;84.75;;;43.80;;
3949;SDS011;53057;50.988;6.314;2024-01-11T11:16:33;90.25;;;44.50;;
3949;SDS011;53057;50.988;6.314;2024-01-11T11:23:18;88.10;;;42.35;;
3949;SDS011;53057;50.988;6.314;2024-01-11T11:25:50;94.00;;;44.92;;
3949;SDS011;53057;50.988;6.314;2024-01-11T11:31:34;85.55;;;42.85;;
3949;SDS011;53057;50.988;6.314;2024-01-11T11:34:04;82.05;;;41.20;;
3949;SDS011;53057;50.988;6.314;2024-01-11T11:36:35;83.37;;;45.17;;
3949;SDS011;53057;50.988;6.314;2024-01-11T11:39:03;78.00;;;41.60;;
3949;SDS011;53057;50.988;6.314;2024-01-11T11:41:36;85.60;;;44.30;;
3949;SDS011;53057;50.988;6.314;2024-01-11T11:44:06;82.70;;;44.90;;
3949;SDS011;53057;50.988;6.314;2024-01-11T11:46:34;81.30;;;45.80;;
3949;SDS011;53057;50.988;6.314;2024-01-11T11:49:02;89.70;;;45.20;;
3949;SDS011;53057;50.988;6.314;2024-01-11T11:51:30;99.37;;;48.00;;
3949;SDS011;53057;50.988;6.314;2024-01-11T11:54:00;89.73;;;48.50;;
3949;SDS011;53057;50.988;6.314;2024-01-11T11:56:29;82.67;;;44.40;;
3949;SDS011;53057;50.988;6.314;2024-01-11T11:58:57;81.53;;;44.83;;
3949;SDS011;53057;50.988;6.314;2024-01-11T12:01:29;81.93;;;42.63;;
3949;SDS011;53057;50.988;6.314;2024-01-11T12:03:58;84.70;;;44.30;;
3949;SDS011;53057;50.988;6.314;2024-01-11T12:06:25;77.40;;;42.30;;
3949;SDS011;53057;50.988;6.314;2024-01-11T12:08:55;83.47;;;43.80;;
3949;SDS011;53057;50.988;6.314;2024-01-11T12:11:25;71.57;;;39.37;;
3949;SDS011;53057;50.988;6.314;2024-01-11T12:13:52;76.83;;;42.23;;
3949;SDS011;53057;50.988;6.314;2024-01-11T12:16:21;85.30;;;44.33;;
3949;SDS011;53057;50.988;6.314;2024-01-11T12:18:49;93.43;;;46.27;;
3949;SDS011;53057;50.988;6.314;2024-01-11T12:21:18;88.77;;;43.27;;
3949;SDS011;53057;50.988;6.314;2024-01-11T12:23:47;100.17;;;46.87;;
3949;SDS011;53057;50.988;6.314;2024-01-11T12:26:16;88.40;;;40.57;;
3949;SDS011;53057;50.988;6.314;2024-01-11T12:28:50;79.03;;;43.90;;
3949;SDS011;53057;50.988;6.314;2024-01-11T12:31:20;80.23;;;43.57;;
3949;SDS011;53057;50.988;6.314;2024-01-11T12:33:47;70.27;;;41.10;;
3949;SDS011;53057;50.988;6.314;2024-01-11T12:36:15;84.47;;;45.00;;
3949;SDS011;53057;50.988;6.314;2024-01-11T12:38:47;87.20;;;42.67;;
3949;SDS011;53057;50.988;6.314;2024-01-11T12:41:20;95.10;;;42.60;;
3949;SDS011;53057;50.988;6.314;2024-01-11T12:43:49;76.00;;;41.50;;
3949;SDS011;53057;50.988;6.314;2024-01-11T12:46:16;76.67;;;44.13;;
3949;SDS011;53057;50.988;6.314;2024-01-11T12:48:44;72.00;;;42.33;;
3949;SDS011;53057;50.988;6.314;2024-01-11T12:51:11;72.40;;;39.97;;
3949;SDS011;53057;50.988;6.314;2024-01-11T12:53:47;81.53;;;41.10;;
3949;SDS011;53057;50.988;6.314;2024-01-11T12:56:18;75.43;;;40.97;;
3949;SDS011;53057;50.988;6.314;2024-01-11T12:58:48;63.27;;;37.57;;
3949;SDS011;53057;50.988;6.314;2024-01-11T13:01:15;67.00;;;39.20;;
3949;SDS011;53057;50.988;6.314;2024-01-11T13:03:44;76.20;;;39.67;;
3949;SDS011;53057;50.988;6.314;2024-01-11T13:06:11;72.70;;;40.53;;
3949;SDS011;53057;50.988;6.314;2024-01-11T13:08:39;70.33;;;38.90;;
3949;SDS011;53057;50.988;6.314;2024-01-11T13:11:07;72.50;;;40.53;;
3949;SDS011;53057;50.988;6.314;2024-01-11T13:13:35;79.47;;;38.37;;
3949;SDS011;53057;50.988;6.314;2024-01-11T13:16:02;69.47;;;37.97;;
3949;SDS011;53057;50.988;6.314;2024-01-11T13:18:41;78.33;;;43.13;;
3949;SDS011;53057;50.988;6.314;2024-01-11T13:21:08;102.30;;;47.50;;
3949;SDS011;53057;50.988;6.314;2024-01-11T13:23:37;80.80;;;44.70;;
3949;SDS011;53057;50.988;6.314;2024-01-11T13:26:06;82.27;;;46.17;;
3949;SDS011;53057;50.988;6.314;2024-01-11T13:28:34;79.27;;;45.50;;
3949;SDS011;53057;50.988;6.314;2024-01-11T13:31:02;81.47;;;42.33;;
3949;SDS011;53057;50.988;6.314;2024-01-11T13:33:30;71.03;;;37.00;;
3949;SDS011;53057;50.988;6.314;2024-01-11T13:35:58;72.53;;;35.30;;
3949;SDS011;53057;50.988;6.314;2024-01-11T13:38:26;58.87;;;32.97;;
3949;SDS011;53057;50.988;6.314;2024-01-11T13:40:53;58.53;;;34.17;;
3949;SDS011;53057;50.988;6.314;2024-01-11T13:43:21;57.23;;;33.53;;
3949;SDS011;53057;50.988;6.314;2024-01-11T13:45:48;63.80;;;37.50;;
3949;SDS011;53057;50.988;6.314;2024-01-11T13:48:16;74.37;;;34.70;;
3949;SDS011;53057;50.988;6.314;2024-01-11T13:50:43;64.37;;;37.20;;
3949;SDS011;53057;50.988;6.314;2024-01-11T13:53:10;69.93;;;37.70;;
3949;SDS011;53057;50.988;6.314;2024-01-11T13:55:38;66.47;;;35.57;;
3949;SDS011;53057;50.988;6.314;2024-01-11T13:58:07;68.27;;;38.50;;
3949;SDS011;53057;50.988;6.314;2024-01-11T14:00:36;78.30;;;36.97;;
3949;SDS011;53057;50.988;6.314;2024-01-11T14:03:04;66.00;;;35.63;;
3949;SDS011;53057;50.988;6.314;2024-01-11T14:05:32;63.30;;;33.23;;
3949;SDS011;53057;50.988;6.314;2024-01-11T14:08:01;69.30;;;37.30;;
3949;SDS011;53057;50.988;6.314;2024-01-11T14:10:33;80.83;;;36.07;;
3949;SDS011;53057;50.988;6.314;2024-01-11T14:13:01;75.50;;;39.13;;
3949;SDS011;53057;50.988;6.314;2024-01-11T14:15:29;72.43;;;35.37;;
3949;SDS011;53057;50.988;6.314;2024-01-11T14:17:58;71.20;;;39.40;;
3949;SDS011;53057;50.988;6.314;2024-01-11T14:20:26;63.30;;;35.40;;
3949;SDS011;53057;50.988;6.314;2024-01-11T14:22:55;68.67;;;34.80;;
3949;SDS011;53057;50.988;6.314;2024-01-11T14:25:23;62.20;;;35.53;;
3949;SDS011;53057;50.988;6.314;2024-01-11T14:27:52;60.10;;;33.67;;
3949;SDS011;53057;50.988;6.314;2024-01-11T14:30:20;63.60;;;33.70;;
3949;SDS011;53057;50.988;6.314;2024-01-11T14:32:50;70.33;;;33.70;;
3949;SDS011;53057;50.988;6.314;2024-01-11T14:35:17;61.10;;;32.60;;
3949;SDS011;53057;50.988;6.314;2024-01-11T14:37:45;56.63;;;30.50;;
3949;SDS011;53057;50.988;6.314;2024-01-11T14:40:12;60.30;;;31.80;;
3949;SDS011;53057;50.988;6.314;2024-01-11T14:42:39;56.13;;;30.67;;
3949;SDS011;53057;50.988;6.314;2024-01-11T14:45:06;57.83;;;32.60;;
3949;SDS011;53057;50.988;6.314;2024-01-11T14:47:34;62.13;;;30.63;;
3949;SDS011;53057;50.988;6.314;2024-01-11T14:50:02;53.70;;;31.57;;
3949;SDS011;53057;50.988;6.314;2024-01-11T14:52:36;53.53;;;30.83;;